Time;durP1;ratioP1;P1;durP2;ratioP2;P2;SDS_P1;SDS_P2;PMS_P1;PMS_P2;Temp;Humidity;BMP_temperature;BMP_pressure;BME280_temperature;BME280_humidity;BME280_pressure;Samples;Min_cycle;Max_cycle;Signal;HPM_P1;HPM_P2
2022/12/28 00:02:30;;;;;;;1.00;0.90;;;;;;;;;;6263925;28;20275;-82
2022/12/28 00:05:36;;;;;;;1.10;1.10;;;;;;;;;;6263600;28;20618;-82
2022/12/28 00:08:42;;;;;;;4.03;0.93;;;;;;;;;;6262651;28;20272;-83
2022/12/28 00:11:48;;;;;;;2.43;1.00;;;;;;;;;;6252292;28;20275;-81
2022/12/28 00:14:53;;;;;;;1.10;1.10;;;;;;;;;;6301217;28;20267;-82
2022/12/28 00:17:59;;;;;;;2.37;1.07;;;;;;;;;;6288802;28;20267;-82
2022/12/28 00:21:06;;;;;;;1.63;0.90;;;;;;;;;;6288766;28;20263;-83
2022/12/28 00:24:18;;;;;;;1.00;1.00;;;;;;;;;;6271058;28;20266;-82
2022/12/28 00:27:24;;;;;;;2.53;0.90;;;;;;;;;;6287799;28;20276;-83
2022/12/28 00:30:30;;;;;;;1.90;0.87;;;;;;;;;;6288051;28;20270;-82
2022/12/28 00:33:35;;;;;;;2.23;0.70;;;;;;;;;;6286977;28;20282;-82
2022/12/28 00:36:43;;;;;;;1.17;1.00;;;;;;;;;;6287756;28;20290;-83
2022/12/28 00:40:09;;;;;;;1.10;1.10;;;;;;;;;;6287624;28;20266;-82
2022/12/28 00:43:16;;;;;;;0.90;0.90;;;;;;;;;;6270705;28;20279;-82
2022/12/28 00:46:21;;;;;;;0.90;0.90;;;;;;;;;;6287948;28;20274;-82
2022/12/28 00:49:27;;;;;;;1.83;0.90;;;;;;;;;;6269606;28;20270;-82
2022/12/28 00:52:32;;;;;;;1.00;1.00;;;;;;;;;;6269886;28;20447;-82
2022/12/28 00:55:38;;;;;;;3.43;1.00;;;;;;;;;;6287550;28;20287;-81
2022/12/28 00:58:45;;;;;;;1.40;1.30;;;;;;;;;;6287217;28;20267;-83
2022/12/28 01:01:50;;;;;;;2.10;1.10;;;;;;;;;;6287400;28;20270;-82
2022/12/28 01:04:55;;;;;;;4.13;1.10;;;;;;;;;;6287031;28;20294;-83
2022/12/28 01:08:01;;;;;;;0.90;0.90;;;;;;;;;;6286065;28;20461;-81
2022/12/28 01:11:08;;;;;;;0.93;0.93;;;;;;;;;;6286928;28;20274;-83
2022/12/28 01:14:14;;;;;;;0.90;0.90;;;;;;;;;;6287135;28;20570;-82
2022/12/28 01:17:20;;;;;;;1.80;1.30;;;;;;;;;;6269444;28;20293;-81
2022/12/28 01:20:25;;;;;;;1.17;1.17;;;;;;;;;;6286354;28;20288;-82
2022/12/28 01:23:31;;;;;;;7.50;1.23;;;;;;;;;;6286027;28;20265;-81
2022/12/28 01:26:36;;;;;;;1.23;1.00;;;;;;;;;;6300409;28;20275;-82
2022/12/28 01:29:43;;;;;;;1.17;1.17;;;;;;;;;;6286835;28;20269;-82
2022/12/28 01:32:48;;;;;;;1.47;1.03;;;;;;;;;;6286302;28;20265;-82
2022/12/28 01:35:53;;;;;;;1.27;1.00;;;;;;;;;;6285385;28;20267;-82
2022/12/28 01:39:00;;;;;;;1.73;1.63;;;;;;;;;;6285953;28;20265;-82
2022/12/28 01:42:16;;;;;;;1.90;1.00;;;;;;;;;;6285170;28;20570;-81
2022/12/28 01:45:23;;;;;;;0.80;0.80;;;;;;;;;;6286641;28;20279;-83
2022/12/28 01:48:28;;;;;;;1.00;1.00;;;;;;;;;;6268808;28;20571;-83
2022/12/28 01:51:37;;;;;;;1.93;0.90;;;;;;;;;;6286278;28;20270;-82
2022/12/28 01:54:44;;;;;;;2.50;0.90;;;;;;;;;;6268561;28;20270;-83
2022/12/28 01:57:52;;;;;;;2.03;1.00;;;;;;;;;;6285063;28;20581;-83
2022/12/28 02:00:59;;;;;;;0.90;0.90;;;;;;;;;;6269061;28;20541;-82
2022/12/28 02:04:04;;;;;;;1.03;1.00;;;;;;;;;;6303473;22;20297;-84
2022/12/28 02:07:10;;;;;;;0.90;0.90;;;;;;;;;;6286691;28;20267;-85
2022/12/28 02:10:16;;;;;;;2.00;1.10;;;;;;;;;;6269122;28;20269;-85
2022/12/28 02:13:43;;;;;;;1.97;1.13;;;;;;;;;;6279707;28;20266;-85
2022/12/28 02:16:50;;;;;;;0.90;0.90;;;;;;;;;;6251484;28;20369;-86
2022/12/28 02:19:56;;;;;;;1.27;0.97;;;;;;;;;;6267024;28;20565;-84
2022/12/28 02:23:24;;;;;;;1.43;0.97;;;;;;;;;;6284863;28;20277;-85
2022/12/28 02:26:54;;;;;;;0.90;0.90;;;;;;;;;;6267732;28;20281;-85
2022/12/28 02:30:07;;;;;;;1.20;1.00;;;;;;;;;;6265522;28;20273;-85
2022/12/28 02:33:17;;;;;;;0.80;0.80;;;;;;;;;;6268826;28;20459;-85
2022/12/28 02:36:24;;;;;;;1.00;1.00;;;;;;;;;;6269425;28;20298;-83
2022/12/28 02:39:34;;;;;;;2.67;1.30;;;;;;;;;;6284261;28;20275;-84
2022/12/28 02:42:40;;;;;;;1.13;1.03;;;;;;;;;;6269128;28;20272;-84
2022/12/28 02:53:05;;;;;;;1.17;1.10;;;;;;;;;;6288249;28;20278;-85
2022/12/28 02:56:21;;;;;;;1.00;1.00;;;;;;;;;;6270879;28;20281;-85
2022/12/28 02:59:41;;;;;;;1.40;1.20;;;;;;;;;;6270944;28;20267;-85
2022/12/28 03:02:58;;;;;;;2.00;1.00;;;;;;;;;;6286858;28;20274;-85
2022/12/28 03:09:39;;;;;;;1.53;1.00;;;;;;;;;;6288163;28;20350;-85
2022/12/28 03:12:50;;;;;;;1.10;1.00;;;;;;;;;;6280531;28;20265;-85
2022/12/28 03:16:03;;;;;;;1.50;1.20;;;;;;;;;;6270662;28;20263;-83
2022/12/28 03:32:51;;;;;;;1.13;1.10;;;;;;;;;;6269765;28;20348;-85
2022/12/28 03:36:04;;;;;;;1.10;1.00;;;;;;;;;;6269238;28;20266;-84
2022/12/28 03:39:17;;;;;;;1.00;1.00;;;;;;;;;;6284457;28;20453;-84
2022/12/28 03:45:54;;;;;;;0.80;0.80;;;;;;;;;;6286908;28;20282;-83
2022/12/28 03:49:00;;;;;;;0.97;0.97;;;;;;;;;;6272171;28;20272;-84
2022/12/28 03:52:08;;;;;;;0.90;0.90;;;;;;;;;;6280250;28;20437;-85
2022/12/28 03:55:14;;;;;;;1.10;1.10;;;;;;;;;;6271846;28;20546;-84
2022/12/28 03:58:21;;;;;;;1.20;1.20;;;;;;;;;;6287922;28;20563;-85
2022/12/28 04:01:27;;;;;;;0.80;0.80;;;;;;;;;;6271552;28;20273;-84
2022/12/28 04:04:32;;;;;;;1.50;1.40;;;;;;;;;;6267044;28;20474;-84
2022/12/28 04:07:39;;;;;;;1.07;0.97;;;;;;;;;;6289774;28;20277;-84
2022/12/28 04:10:45;;;;;;;1.10;1.00;;;;;;;;;;6289315;28;20276;-84
2022/12/28 04:13:50;;;;;;;2.00;1.10;;;;;;;;;;6289121;28;20269;-83
2022/12/28 04:16:55;;;;;;;1.57;1.00;;;;;;;;;;6296126;28;20266;-83
2022/12/28 04:20:01;;;;;;;0.97;0.97;;;;;;;;;;6296186;28;20291;-82
2022/12/28 04:23:09;;;;;;;1.30;1.20;;;;;;;;;;6295887;28;20270;-83
2022/12/28 04:26:16;;;;;;;1.33;1.23;;;;;;;;;;6288088;28;20221;-84
2022/12/28 04:29:23;;;;;;;1.00;1.00;;;;;;;;;;6305494;28;20234;-84
2022/12/28 04:32:38;;;;;;;1.00;1.00;;;;;;;;;;6304407;28;20217;-84
2022/12/28 04:35:45;;;;;;;1.10;1.00;;;;;;;;;;6304199;28;20236;-84
2022/12/28 04:38:51;;;;;;;0.80;0.80;;;;;;;;;;6299480;28;20362;-84
2022/12/28 04:41:57;;;;;;;1.20;1.00;;;;;;;;;;6275321;28;20262;-84
2022/12/28 04:45:02;;;;;;;1.10;1.00;;;;;;;;;;6293382;28;20259;-84
2022/12/28 04:48:07;;;;;;;1.80;1.00;;;;;;;;;;6293484;28;20277;-84
2022/12/28 04:51:18;;;;;;;1.33;1.10;;;;;;;;;;6291997;28;20273;-84
2022/12/28 04:54:25;;;;;;;1.00;1.00;;;;;;;;;;6287437;28;20268;-85
2022/12/28 04:57:30;;;;;;;2.23;0.87;;;;;;;;;;6286877;28;20281;-85
2022/12/28 05:00:36;;;;;;;1.83;1.00;;;;;;;;;;6287620;28;20365;-84
2022/12/28 05:03:42;;;;;;;1.80;0.87;;;;;;;;;;6287275;28;20298;-84
2022/12/28 05:06:54;;;;;;;1.60;1.00;;;;;;;;;;6287666;28;20285;-85
2022/12/28 05:10:01;;;;;;;1.83;1.10;;;;;;;;;;6287539;28;20279;-84
2022/12/28 05:13:07;;;;;;;1.00;1.00;;;;;;;;;;6269999;28;20263;-84
2022/12/28 05:16:15;;;;;;;1.80;1.00;;;;;;;;;;6261274;28;20273;-84
2022/12/28 05:19:20;;;;;;;1.43;1.27;;;;;;;;;;6227976;28;20290;-84
2022/12/28 05:22:25;;;;;;;2.47;1.00;;;;;;;;;;6261845;28;20274;-84
2022/12/28 05:25:32;;;;;;;1.00;1.00;;;;;;;;;;6260860;28;20278;-84
2022/12/28 05:28:37;;;;;;;1.33;1.00;;;;;;;;;;6261923;28;20470;-84
2022/12/28 05:31:43;;;;;;;1.47;1.37;;;;;;;;;;6261623;28;20554;-84
2022/12/28 05:34:48;;;;;;;3.77;1.80;;;;;;;;;;6244705;28;20274;-84
2022/12/28 05:37:54;;;;;;;2.00;1.30;;;;;;;;;;6262137;28;20337;-84
2022/12/28 05:41:06;;;;;;;1.20;1.10;;;;;;;;;;6261378;28;20274;-84
2022/12/28 05:44:12;;;;;;;1.20;1.20;;;;;;;;;;6262335;28;20279;-84
2022/12/28 05:47:17;;;;;;;1.43;1.00;;;;;;;;;;6244284;28;20282;-85
2022/12/28 05:50:22;;;;;;;1.10;1.10;;;;;;;;;;6261640;28;20274;-85
2022/12/28 05:53:29;;;;;;;1.10;1.10;;;;;;;;;;6261673;28;20266;-84
2022/12/28 05:56:36;;;;;;;1.00;1.00;;;;;;;;;;6251395;28;20274;-84
2022/12/28 05:59:42;;;;;;;3.50;1.10;;;;;;;;;;6272583;28;20287;-83
2022/12/28 06:02:47;;;;;;;1.27;1.27;;;;;;;;;;6271036;28;20267;-84
2022/12/28 06:05:52;;;;;;;2.17;1.27;;;;;;;;;;6247221;28;20277;-84
2022/12/28 06:08:58;;;;;;;1.10;1.10;;;;;;;;;;6243175;28;20282;-84
2022/12/28 06:12:05;;;;;;;1.00;1.00;;;;;;;;;;6260895;28;20266;-85
2022/12/28 06:15:12;;;;;;;1.40;1.40;;;;;;;;;;6244164;28;20274;-85
2022/12/28 06:18:17;;;;;;;1.30;1.30;;;;;;;;;;6262313;28;20266;-85
2022/12/28 06:21:26;;;;;;;1.03;1.03;;;;;;;;;;6246940;28;20274;-85
2022/12/28 06:24:31;;;;;;;1.00;1.00;;;;;;;;;;6244582;28;20273;-82
2022/12/28 06:27:38;;;;;;;2.77;1.10;;;;;;;;;;6244737;28;20277;-85
2022/12/28 06:30:43;;;;;;;1.53;1.40;;;;;;;;;;6262311;28;20273;-85
2022/12/28 06:33:58;;;;;;;1.80;1.20;;;;;;;;;;6261457;28;20266;-83
2022/12/28 06:37:04;;;;;;;2.27;1.20;;;;;;;;;;6261016;28;20265;-85
2022/12/28 06:40:12;;;;;;;1.77;1.20;;;;;;;;;;6260588;28;20285;-85
2022/12/28 06:43:18;;;;;;;1.53;1.13;;;;;;;;;;6260442;28;20269;-85
2022/12/28 06:46:25;;;;;;;1.30;1.13;;;;;;;;;;6260501;28;20266;-85
2022/12/28 06:49:31;;;;;;;2.13;1.30;;;;;;;;;;6261016;28;20276;-85
2022/12/28 06:52:37;;;;;;;1.20;1.20;;;;;;;;;;6260667;28;20267;-84
2022/12/28 06:55:42;;;;;;;1.40;1.30;;;;;;;;;;6260009;28;20269;-84
2022/12/28 06:58:50;;;;;;;5.10;1.40;;;;;;;;;;6242920;28;20280;-84
2022/12/28 07:02:02;;;;;;;1.60;1.10;;;;;;;;;;6260497;28;20274;-84
2022/12/28 07:05:08;;;;;;;2.90;1.40;;;;;;;;;;6270250;28;20301;-84
2022/12/28 07:08:13;;;;;;;1.87;1.50;;;;;;;;;;6284289;28;20268;-85
2022/12/28 07:11:21;;;;;;;1.00;1.00;;;;;;;;;;6285481;28;20277;-83
2022/12/28 07:14:28;;;;;;;1.40;1.30;;;;;;;;;;6267871;28;20275;-84
2022/12/28 07:17:33;;;;;;;1.20;1.20;;;;;;;;;;6284891;28;20273;-84
2022/12/28 07:20:39;;;;;;;1.87;1.27;;;;;;;;;;6288986;28;20293;-85
2022/12/28 07:23:44;;;;;;;1.30;1.20;;;;;;;;;;6289891;28;20268;-84
2022/12/28 07:26:49;;;;;;;1.10;1.10;;;;;;;;;;6289126;28;20268;-85
2022/12/28 07:29:56;;;;;;;1.17;1.17;;;;;;;;;;6289544;28;20358;-85
2022/12/28 07:33:01;;;;;;;1.37;1.27;;;;;;;;;;6289572;28;20292;-84
2022/12/28 07:36:08;;;;;;;2.73;1.20;;;;;;;;;;6288907;28;20285;-84
2022/12/28 07:39:13;;;;;;;1.47;1.20;;;;;;;;;;6289153;28;20271;-83
2022/12/28 07:42:19;;;;;;;3.23;1.20;;;;;;;;;;6290280;28;20267;-83
2022/12/28 07:45:26;;;;;;;2.00;1.57;;;;;;;;;;6293598;28;20264;-83
2022/12/28 07:48:32;;;;;;;1.50;1.50;;;;;;;;;;6276177;28;20266;-85
2022/12/28 07:51:38;;;;;;;2.00;1.70;;;;;;;;;;6293672;28;20276;-85
2022/12/28 07:54:44;;;;;;;2.37;1.43;;;;;;;;;;6291382;28;20291;-84
2022/12/28 07:57:50;;;;;;;4.57;2.00;;;;;;;;;;6289307;28;20266;-85
2022/12/28 08:01:06;;;;;;;1.60;1.50;;;;;;;;;;6287857;28;20302;-84
2022/12/28 08:04:14;;;;;;;3.93;1.37;;;;;;;;;;6288694;28;20313;-85
2022/12/28 08:07:21;;;;;;;1.33;1.33;;;;;;;;;;6288295;28;20288;-85
2022/12/28 08:10:27;;;;;;;1.77;1.67;;;;;;;;;;6288720;28;20277;-85
2022/12/28 08:13:47;;;;;;;2.20;1.60;;;;;;;;;;6266454;28;20273;-85
2022/12/28 08:16:59;;;;;;;8.33;1.73;;;;;;;;;;6231702;28;20277;-84
2022/12/28 08:20:05;;;;;;;3.93;1.47;;;;;;;;;;6229945;28;20385;-84
2022/12/28 08:23:11;;;;;;;1.73;1.60;;;;;;;;;;6245104;28;20296;-84
2022/12/28 08:26:18;;;;;;;2.10;1.67;;;;;;;;;;6247239;28;20279;-84
2022/12/28 08:29:24;;;;;;;1.90;1.70;;;;;;;;;;6264254;28;20269;-84
2022/12/28 08:32:31;;;;;;;2.70;1.77;;;;;;;;;;6245303;28;20281;-85
2022/12/28 08:35:40;;;;;;;2.00;1.83;;;;;;;;;;6231257;28;20277;-85
2022/12/28 08:38:45;;;;;;;5.60;1.70;;;;;;;;;;6263688;28;20274;-85
2022/12/28 08:41:50;;;;;;;3.57;1.73;;;;;;;;;;6249129;28;20300;-84
2022/12/28 08:44:56;;;;;;;3.07;1.90;;;;;;;;;;6265882;28;20272;-84
2022/12/28 08:48:03;;;;;;;2.20;2.00;;;;;;;;;;6274123;28;20248;-85
2022/12/28 08:51:11;;;;;;;2.27;1.90;;;;;;;;;;6277912;28;20298;-85
2022/12/28 08:54:16;;;;;;;5.37;2.03;;;;;;;;;;6264496;28;20272;-86
2022/12/28 08:57:21;;;;;;;2.13;1.97;;;;;;;;;;6262736;28;20276;-85
2022/12/28 09:00:26;;;;;;;2.53;1.73;;;;;;;;;;6245228;28;20295;-85
2022/12/28 09:03:34;;;;;;;5.70;1.90;;;;;;;;;;6250870;28;20305;-86
2022/12/28 09:06:41;;;;;;;4.27;2.00;;;;;;;;;;6269347;28;20275;-84
2022/12/28 09:09:46;;;;;;;3.93;2.27;;;;;;;;;;6287385;28;20276;-85
2022/12/28 09:12:52;;;;;;;2.47;2.23;;;;;;;;;;6286618;28;20261;-86
2022/12/28 09:15:59;;;;;;;7.20;1.67;;;;;;;;;;6287087;28;20272;-85
2022/12/28 09:19:08;;;;;;;2.40;2.20;;;;;;;;;;6286856;28;20276;-84
2022/12/28 09:22:13;;;;;;;2.70;1.90;;;;;;;;;;6268723;28;20341;-84
2022/12/28 09:25:19;;;;;;;3.37;1.90;;;;;;;;;;6268780;28;20279;-84
2022/12/28 09:28:24;;;;;;;6.40;2.10;;;;;;;;;;6286838;28;20271;-85
2022/12/28 09:31:31;;;;;;;2.50;1.80;;;;;;;;;;6268883;28;20548;-85
2022/12/28 09:34:40;;;;;;;2.73;2.17;;;;;;;;;;6286430;28;20271;-85
2022/12/28 09:37:45;;;;;;;2.60;2.40;;;;;;;;;;6285797;28;20273;-86
2022/12/28 09:40:53;;;;;;;2.20;2.10;;;;;;;;;;6252946;28;20428;-85
2022/12/28 09:44:09;;;;;;;3.77;2.40;;;;;;;;;;6267794;28;20268;-84
2022/12/28 09:47:20;;;;;;;4.00;2.33;;;;;;;;;;6287267;28;20571;-84
2022/12/28 09:50:28;;;;;;;6.23;2.23;;;;;;;;;;6287680;28;20275;-86
2022/12/28 09:53:36;;;;;;;4.73;2.40;;;;;;;;;;6287432;28;20288;-84
2022/12/28 09:56:44;;;;;;;2.50;2.30;;;;;;;;;;6269329;28;20276;-85
2022/12/28 09:59:50;;;;;;;6.33;2.40;;;;;;;;;;6268488;28;20275;-86
2022/12/28 10:02:59;;;;;;;4.10;2.47;;;;;;;;;;6286460;28;20467;-86
2022/12/28 10:06:11;;;;;;;4.20;2.20;;;;;;;;;;6286267;28;20274;-85
2022/12/28 10:09:22;;;;;;;4.13;2.60;;;;;;;;;;6268663;28;20294;-85
2022/12/28 10:12:31;;;;;;;3.90;2.00;;;;;;;;;;6285149;28;20281;-86
2022/12/28 10:15:36;;;;;;;5.43;2.43;;;;;;;;;;6268585;28;20580;-85
2022/12/28 10:18:43;;;;;;;4.47;2.40;;;;;;;;;;6286654;28;20269;-87
2022/12/28 10:21:58;;;;;;;3.13;2.17;;;;;;;;;;6285779;28;20296;-85
2022/12/28 10:25:10;;;;;;;4.40;2.47;;;;;;;;;;6268497;28;20271;-86
2022/12/28 10:28:18;;;;;;;6.40;2.67;;;;;;;;;;6269028;28;20443;-86
2022/12/28 10:31:42;;;;;;;8.50;2.60;;;;;;;;;;6284312;28;20276;-85
2022/12/28 10:34:56;;;;;;;2.57;2.47;;;;;;;;;;6284670;28;20270;-86
2022/12/28 10:38:18;;;;;;;5.27;2.50;;;;;;;;;;6284651;28;20262;-85
2022/12/28 10:41:33;;;;;;;3.50;2.33;;;;;;;;;;6282634;28;20286;-86
2022/12/28 10:44:40;;;;;;;7.67;2.70;;;;;;;;;;6287519;28;20510;-84
2022/12/28 10:47:48;;;;;;;4.10;2.23;;;;;;;;;;6270018;28;20278;-85
2022/12/28 10:50:55;;;;;;;3.73;2.37;;;;;;;;;;6268830;28;20269;-86
2022/12/28 10:54:02;;;;;;;2.70;2.50;;;;;;;;;;6286948;28;20273;-86
2022/12/28 10:57:17;;;;;;;4.70;2.63;;;;;;;;;;6273630;28;20268;-82
2022/12/28 11:00:24;;;;;;;2.60;2.40;;;;;;;;;;6290152;28;20548;-82
2022/12/28 11:03:34;;;;;;;4.20;2.70;;;;;;;;;;6290072;28;20304;-82
2022/12/28 11:06:53;;;;;;;3.63;2.60;;;;;;;;;;6290133;28;20442;-84
2022/12/28 11:10:27;;;;;;;10.87;2.60;;;;;;;;;;6290264;28;20440;-81
2022/12/28 11:13:32;;;;;;;2.63;2.20;;;;;;;;;;6289625;28;20277;-82
2022/12/28 11:16:38;;;;;;;4.40;2.47;;;;;;;;;;6272578;28;20263;-84
2022/12/28 11:19:43;;;;;;;3.07;2.20;;;;;;;;;;6291146;28;20556;-82
2022/12/28 11:22:49;;;;;;;4.80;2.33;;;;;;;;;;6292699;28;20293;-85
2022/12/28 11:25:56;;;;;;;8.17;2.40;;;;;;;;;;6275504;28;20554;-85
2022/12/28 11:29:02;;;;;;;2.80;2.03;;;;;;;;;;6290516;28;20280;-88
2022/12/28 11:32:17;;;;;;;3.63;2.10;;;;;;;;;;6289779;28;20273;-86
2022/12/28 11:35:25;;;;;;;6.13;2.20;;;;;;;;;;6288962;28;20282;-84
2022/12/28 11:38:40;;;;;;;2.20;2.10;;;;;;;;;;6266914;28;20357;-85
2022/12/28 11:41:51;;;;;;;4.17;2.20;;;;;;;;;;6271536;28;20263;-86
2022/12/28 11:45:37;;;;;;;4.73;2.43;;;;;;;;;;6289237;28;20273;-82
2022/12/28 11:48:57;;;;;;;2.77;2.10;;;;;;;;;;6289248;28;20264;-84
2022/12/28 11:52:45;;;;;;;6.87;2.80;;;;;;;;;;6289720;28;20530;-85
2022/12/28 11:56:05;;;;;;;6.20;2.30;;;;;;;;;;6270992;28;20282;-84
2022/12/28 11:59:24;;;;;;;2.27;2.17;;;;;;;;;;6288373;28;20274;-86
2022/12/28 12:02:41;;;;;;;3.30;2.37;;;;;;;;;;6288564;28;20426;-82
2022/12/28 12:05:53;;;;;;;4.00;3.07;;;;;;;;;;6283729;28;20304;-89
2022/12/28 12:08:59;;;;;;;6.90;2.70;;;;;;;;;;6289398;28;20278;-87
2022/12/28 12:12:34;;;;;;;6.17;2.60;;;;;;;;;;6288232;28;20274;-84
2022/12/28 12:15:44;;;;;;;5.77;2.77;;;;;;;;;;6286956;28;20281;-85
2022/12/28 12:18:54;;;;;;;4.57;2.77;;;;;;;;;;6287706;28;20268;-85
2022/12/28 12:22:01;;;;;;;3.23;2.80;;;;;;;;;;6288752;28;20269;-84
2022/12/28 12:25:16;;;;;;;6.27;2.50;;;;;;;;;;6288763;28;20266;-89
2022/12/28 12:28:36;;;;;;;3.50;2.40;;;;;;;;;;6289195;28;20274;-84
2022/12/28 12:31:46;;;;;;;5.30;2.70;;;;;;;;;;6287950;28;20469;-85
2022/12/28 12:34:53;;;;;;;6.03;2.90;;;;;;;;;;6271109;28;20271;-81
2022/12/28 12:38:01;;;;;;;8.13;2.73;;;;;;;;;;6287455;28;20273;-85
2022/12/28 12:41:25;;;;;;;3.60;3.07;;;;;;;;;;6270343;28;20282;-85
2022/12/28 12:44:37;;;;;;;5.33;2.87;;;;;;;;;;6287816;28;20381;-88
2022/12/28 12:48:08;;;;;;;3.50;2.70;;;;;;;;;;6287369;28;20294;-87
2022/12/28 12:51:27;;;;;;;3.43;2.63;;;;;;;;;;6285689;28;20276;-86
2022/12/28 12:54:41;;;;;;;2.47;2.33;;;;;;;;;;6270267;28;20282;-84
2022/12/28 12:57:54;;;;;;;6.07;2.93;;;;;;;;;;6287404;28;20274;-82
2022/12/28 13:01:21;;;;;;;3.80;2.73;;;;;;;;;;6287397;28;20292;-85
2022/12/28 13:04:31;;;;;;;2.83;2.60;;;;;;;;;;6286865;28;20618;-84
2022/12/28 13:07:37;;;;;;;2.60;2.47;;;;;;;;;;6286941;28;20548;-81
2022/12/28 13:10:43;;;;;;;3.77;2.50;;;;;;;;;;6268986;28;20274;-81
2022/12/28 13:13:51;;;;;;;2.30;2.20;;;;;;;;;;6264394;28;20298;-81
2022/12/28 13:16:58;;;;;;;3.17;2.10;;;;;;;;;;6262390;28;20279;-82
2022/12/28 13:20:19;;;;;;;4.67;2.13;;;;;;;;;;6262501;28;20274;-86
2022/12/28 13:23:24;;;;;;;2.90;2.37;;;;;;;;;;6228326;28;20482;-81
2022/12/28 13:26:33;;;;;;;2.43;2.13;;;;;;;;;;6244141;28;20298;-80
2022/12/28 13:29:40;;;;;;;2.00;1.90;;;;;;;;;;6261814;28;20551;-81
2022/12/28 13:32:51;;;;;;;2.13;2.03;;;;;;;;;;6261897;28;20275;-80
2022/12/28 13:36:17;;;;;;;4.63;2.00;;;;;;;;;;6261685;28;20286;-82
2022/12/28 13:39:22;;;;;;;2.73;2.03;;;;;;;;;;6261905;28;20311;-80
2022/12/28 13:42:31;;;;;;;2.73;2.03;;;;;;;;;;6261681;28;20271;-82
2022/12/28 13:45:37;;;;;;;2.07;1.97;;;;;;;;;;6261377;28;20290;-81
2022/12/28 13:48:46;;;;;;;4.33;1.80;;;;;;;;;;6261182;28;20280;-82
2022/12/28 13:51:53;;;;;;;3.33;2.43;;;;;;;;;;6261634;28;20270;-80
2022/12/28 13:55:01;;;;;;;3.97;2.20;;;;;;;;;;6244461;28;20447;-81
2022/12/28 13:58:11;;;;;;;2.47;2.30;;;;;;;;;;6262263;28;20292;-86
2022/12/28 14:01:20;;;;;;;5.30;2.50;;;;;;;;;;6244440;28;20282;-87
2022/12/28 14:04:26;;;;;;;4.47;2.97;;;;;;;;;;6249629;28;20299;-85
2022/12/28 14:07:53;;;;;;;6.00;3.13;;;;;;;;;;6284554;28;20474;-86
2022/12/28 14:11:00;;;;;;;3.07;2.87;;;;;;;;;;6286373;28;20282;-83
2022/12/28 14:14:05;;;;;;;5.03;2.83;;;;;;;;;;6244076;28;20278;-83
2022/12/28 14:17:11;;;;;;;5.90;3.50;;;;;;;;;;6260748;28;20270;-83
2022/12/28 14:20:16;;;;;;;7.57;3.83;;;;;;;;;;6260672;28;20268;-83
2022/12/28 14:23:26;;;;;;;6.50;4.23;;;;;;;;;;6260027;28;20458;-83
2022/12/28 14:26:32;;;;;;;8.03;4.80;;;;;;;;;;6260360;28;20271;-84
2022/12/28 14:29:38;;;;;;;8.20;4.60;;;;;;;;;;6260922;28;20275;-84
2022/12/28 14:32:43;;;;;;;7.90;5.30;;;;;;;;;;6264222;28;20258;-82
2022/12/28 14:35:50;;;;;;;6.93;5.00;;;;;;;;;;6263318;28;20462;-82
2022/12/28 14:38:59;;;;;;;10.63;5.07;;;;;;;;;;6263613;28;20263;-83
2022/12/28 14:42:26;;;;;;;8.40;5.17;;;;;;;;;;6260837;28;20270;-83
2022/12/28 14:45:41;;;;;;;10.57;5.30;;;;;;;;;;6260614;28;20610;-84
2022/12/28 14:49:25;;;;;;;13.03;5.50;;;;;;;;;;6261058;28;20332;-88
2022/12/28 14:52:41;;;;;;;13.47;6.07;;;;;;;;;;6261758;28;20278;-86
2022/12/28 14:55:59;;;;;;;13.83;7.20;;;;;;;;;;6261447;28;20268;-88
2022/12/28 14:59:04;;;;;;;21.50;10.30;;;;;;;;;;6262306;28;20586;-87
2022/12/28 15:02:41;;;;;;;17.37;8.20;;;;;;;;;;6246894;28;20280;-87
2022/12/28 15:06:19;;;;;;;14.93;8.63;;;;;;;;;;6261596;28;20297;-87
2022/12/28 15:09:24;;;;;;;18.03;11.43;;;;;;;;;;6268494;28;20263;-87
2022/12/28 15:12:32;;;;;;;11.37;7.30;;;;;;;;;;6272159;28;20271;-87
2022/12/28 15:15:38;;;;;;;12.33;7.20;;;;;;;;;;6270205;28;20270;-87
2022/12/28 15:18:44;;;;;;;7.67;5.80;;;;;;;;;;6269410;28;20274;-87
2022/12/28 15:21:49;;;;;;;17.90;7.63;;;;;;;;;;6286468;28;20283;-88
2022/12/28 15:24:54;;;;;;;4.70;4.23;;;;;;;;;;6286318;28;20302;-89
2022/12/28 15:28:01;;;;;;;5.47;4.50;;;;;;;;;;6299486;28;20226;-88
2022/12/28 15:31:08;;;;;;;4.90;3.83;;;;;;;;;;6300436;28;20246;-88
2022/12/28 15:34:13;;;;;;;4.63;4.00;;;;;;;;;;6275983;28;20274;-87
2022/12/28 15:37:18;;;;;;;5.93;4.33;;;;;;;;;;6271872;28;20275;-84
2022/12/28 15:40:23;;;;;;;4.70;4.40;;;;;;;;;;6288238;28;20295;-85
2022/12/28 15:43:30;;;;;;;5.77;4.37;;;;;;;;;;6289129;28;20269;-85
2022/12/28 15:46:36;;;;;;;4.87;4.33;;;;;;;;;;6290042;28;20298;-85
2022/12/28 15:49:42;;;;;;;4.53;4.23;;;;;;;;;;6271610;28;20311;-85
2022/12/28 15:52:47;;;;;;;5.93;4.70;;;;;;;;;;6290010;28;20266;-85
2022/12/28 15:55:59;;;;;;;9.30;5.07;;;;;;;;;;6304987;28;20230;-83
2022/12/28 15:59:08;;;;;;;9.33;5.40;;;;;;;;;;6305307;28;20216;-84
2022/12/28 16:02:16;;;;;;;11.70;5.67;;;;;;;;;;6304849;28;20242;-83
2022/12/28 16:05:22;;;;;;;7.53;5.60;;;;;;;;;;6304568;28;20364;-88
2022/12/28 16:08:28;;;;;;;8.50;5.30;;;;;;;;;;6284849;28;20234;-85
2022/12/28 16:11:33;;;;;;;6.87;5.17;;;;;;;;;;6299806;28;20495;-85
2022/12/28 16:14:40;;;;;;;5.77;5.07;;;;;;;;;;6294906;28;20279;-86
2022/12/28 16:17:47;;;;;;;7.77;4.73;;;;;;;;;;6294231;28;20269;-86
2022/12/28 16:21:03;;;;;;;10.03;5.43;;;;;;;;;;6294602;28;20283;-85
2022/12/28 16:24:12;;;;;;;7.17;5.10;;;;;;;;;;6290377;28;20309;-86
2022/12/28 16:27:18;;;;;;;5.47;4.70;;;;;;;;;;6290552;28;20298;-85
2022/12/28 16:30:25;;;;;;;9.37;4.77;;;;;;;;;;6290808;28;20274;-84
2022/12/28 16:33:30;;;;;;;5.27;4.50;;;;;;;;;;6290487;28;20555;-86
2022/12/28 16:36:35;;;;;;;9.43;4.80;;;;;;;;;;6289086;28;20293;-86
2022/12/28 16:39:40;;;;;;;7.60;3.97;;;;;;;;;;6271639;28;20262;-84
2022/12/28 16:42:46;;;;;;;5.20;4.23;;;;;;;;;;6286895;28;20263;-85
2022/12/28 16:45:53;;;;;;;7.30;5.60;;;;;;;;;;6288027;28;20294;-85
2022/12/28 16:49:00;;;;;;;7.33;4.83;;;;;;;;;;6291672;28;20251;-84
2022/12/28 16:52:06;;;;;;;10.97;4.60;;;;;;;;;;6303608;28;20238;-84
2022/12/28 16:55:11;;;;;;;7.47;4.80;;;;;;;;;;6303919;28;20227;-84
2022/12/28 16:58:16;;;;;;;7.47;4.97;;;;;;;;;;6300691;28;20262;-85
2022/12/28 17:01:23;;;;;;;9.03;4.97;;;;;;;;;;6288785;28;20266;-86
2022/12/28 17:04:31;;;;;;;8.93;5.00;;;;;;;;;;6289548;28;20300;-86
2022/12/28 17:07:35;;;;;;;12.30;5.53;;;;;;;;;;6287933;28;20600;-86
2022/12/28 17:10:43;;;;;;;7.50;5.10;;;;;;;;;;6287205;28;20359;-86
2022/12/28 17:13:49;;;;;;;4.77;4.27;;;;;;;;;;6269080;28;20268;-85
2022/12/28 17:16:56;;;;;;;4.93;4.53;;;;;;;;;;6287338;28;20275;-85
2022/12/28 17:20:02;;;;;;;8.60;4.63;;;;;;;;;;6287319;28;20433;-84
2022/12/28 17:23:09;;;;;;;6.87;4.83;;;;;;;;;;6278934;28;20280;-86
2022/12/28 17:26:17;;;;;;;6.33;4.33;;;;;;;;;;6286759;28;20304;-85
2022/12/28 17:29:22;;;;;;;12.47;6.07;;;;;;;;;;6286770;28;20410;-85
2022/12/28 17:32:34;;;;;;;4.37;4.00;;;;;;;;;;6270251;28;20598;-85
2022/12/28 17:35:40;;;;;;;5.13;4.73;;;;;;;;;;6286758;28;20435;-86
2022/12/28 17:38:46;;;;;;;5.10;4.57;;;;;;;;;;6269101;28;20276;-86
2022/12/28 17:41:52;;;;;;;5.23;3.70;;;;;;;;;;6269117;28;20457;-87
2022/12/28 17:44:59;;;;;;;3.60;3.30;;;;;;;;;;6271641;28;20290;-85
2022/12/28 17:48:12;;;;;;;3.73;3.50;;;;;;;;;;6290555;28;20268;-86
2022/12/28 17:51:18;;;;;;;6.33;4.97;;;;;;;;;;6293296;28;20255;-85
2022/12/28 17:54:23;;;;;;;7.20;4.07;;;;;;;;;;6274762;28;20287;-85
2022/12/28 17:57:29;;;;;;;5.50;3.50;;;;;;;;;;6292130;28;20279;-85
2022/12/28 18:00:42;;;;;;;3.43;3.13;;;;;;;;;;6288417;28;20280;-84
2022/12/28 18:03:48;;;;;;;3.93;3.63;;;;;;;;;;6283623;28;20303;-84
2022/12/28 18:06:54;;;;;;;4.67;3.03;;;;;;;;;;6285404;28;20291;-85
2022/12/28 18:09:59;;;;;;;3.60;3.40;;;;;;;;;;6268214;28;20279;-85
2022/12/28 18:13:04;;;;;;;5.23;3.63;;;;;;;;;;6285519;28;20283;-85
2022/12/28 18:16:15;;;;;;;3.90;3.60;;;;;;;;;;6285747;28;20274;-86
2022/12/28 18:19:23;;;;;;;3.07;2.97;;;;;;;;;;6268245;28;20272;-85
2022/12/28 18:22:28;;;;;;;3.13;2.80;;;;;;;;;;6284499;28;20463;-86
2022/12/28 18:25:33;;;;;;;4.77;2.93;;;;;;;;;;6284045;28;20273;-85
2022/12/28 18:28:39;;;;;;;3.33;3.13;;;;;;;;;;6268505;28;20444;-85
2022/12/28 18:31:46;;;;;;;3.87;2.70;;;;;;;;;;6267877;28;20594;-86
2022/12/28 18:34:53;;;;;;;3.20;3.03;;;;;;;;;;6268227;28;20277;-85
2022/12/28 18:38:01;;;;;;;4.90;3.50;;;;;;;;;;6285477;28;20277;-85
2022/12/28 18:41:09;;;;;;;3.07;2.93;;;;;;;;;;6268011;28;20458;-85
2022/12/28 18:44:14;;;;;;;3.90;3.60;;;;;;;;;;6287392;28;20268;-85
2022/12/28 18:47:24;;;;;;;3.80;3.50;;;;;;;;;;6286852;28;20296;-84
2022/12/28 18:50:34;;;;;;;2.63;2.50;;;;;;;;;;6286255;28;20263;-86
2022/12/28 18:53:40;;;;;;;2.30;2.30;;;;;;;;;;6271148;28;20436;-86
2022/12/28 18:56:45;;;;;;;2.00;2.00;;;;;;;;;;6285556;28;20279;-86
2022/12/28 18:59:51;;;;;;;2.27;2.17;;;;;;;;;;6268835;28;20259;-86
2022/12/28 19:02:57;;;;;;;1.60;1.60;;;;;;;;;;6268163;28;20272;-84
2022/12/28 19:06:05;;;;;;;2.17;2.07;;;;;;;;;;6267061;28;20304;-85
2022/12/28 19:09:13;;;;;;;1.87;1.77;;;;;;;;;;6267839;28;20278;-84
2022/12/28 19:12:19;;;;;;;7.07;2.83;;;;;;;;;;6267525;28;20321;-86
2022/12/28 19:15:25;;;;;;;2.20;2.10;;;;;;;;;;6286639;28;20279;-85
2022/12/28 19:18:30;;;;;;;3.73;2.00;;;;;;;;;;6290882;28;20281;-85
2022/12/28 19:21:38;;;;;;;1.80;1.80;;;;;;;;;;6291173;28;20263;-85